createdAt,value
2022-08-12T00:00:10.249Z,6.50
2022-08-12T00:02:04.438Z,5.65
2022-08-12T00:03:17.685Z,6.18
2022-08-12T00:04:44.085Z,4.95
2022-08-12T00:06:06.739Z,4.63
2022-08-12T00:07:28.451Z,4.80
2022-08-12T00:08:51.873Z,5.32
2022-08-12T00:10:13.871Z,5.30
2022-08-12T00:11:35.309Z,5.05
2022-08-12T00:12:56.973Z,5.22
2022-08-12T00:14:18.557Z,4.40
2022-08-12T00:15:40.243Z,4.60
2022-08-12T00:17:02.017Z,3.25
2022-08-12T00:18:24.130Z,3.22
2022-08-12T00:19:47.293Z,3.47
2022-08-12T00:21:08.549Z,3.47
2022-08-12T00:22:30.463Z,3.00
2022-08-12T00:23:52.208Z,3.40
2022-08-12T00:25:17.652Z,3.40
2022-08-12T00:26:39.890Z,4.15
2022-08-12T00:28:02.170Z,3.83
2022-08-12T00:29:24.083Z,6.05
2022-08-12T00:30:45.839Z,3.60
2022-08-12T00:32:07.231Z,3.55
2022-08-12T00:33:38.561Z,7.43
2022-08-12T00:35:14.621Z,5.50
2022-08-12T00:36:36.455Z,4.40
2022-08-12T00:37:58.158Z,3.60
2022-08-12T00:39:19.605Z,4.15
2022-08-12T00:40:41.742Z,4.00
2022-08-12T00:42:03.247Z,4.90
2022-08-12T00:43:08.798Z,4.00
2022-08-12T00:44:13.579Z,3.35
2022-08-12T00:45:17.878Z,3.90
2022-08-12T00:46:32.999Z,3.85
2022-08-12T00:47:37.198Z,3.90
2022-08-12T00:48:42.388Z,4.63
2022-08-12T00:49:50.164Z,3.15
2022-08-12T00:50:56.551Z,2.80
2022-08-12T00:52:10.013Z,2.75
2022-08-12T00:53:14.445Z,3.00
2022-08-12T00:54:22.120Z,2.55
2022-08-12T00:55:26.977Z,3.17
2022-08-12T00:56:30.399Z,2.67
2022-08-12T00:57:37.123Z,2.47
2022-08-12T00:58:47.227Z,2.72
2022-08-12T00:59:55.643Z,2.97
2022-08-12T01:01:01.268Z,2.30
2022-08-12T01:02:11.032Z,1.85
2022-08-12T01:03:19.449Z,2.20
2022-08-12T01:04:42.767Z,2.42
2022-08-12T01:06:05.401Z,2.50
2022-08-12T01:07:28.998Z,2.00
2022-08-12T01:08:50.485Z,3.03
2022-08-12T01:10:13.239Z,3.72
2022-08-12T01:11:31.679Z,3.70
2022-08-12T01:12:35.124Z,3.20
2022-08-12T01:13:43.127Z,2.88
2022-08-12T01:14:46.405Z,4.18
2022-08-12T01:15:52.487Z,2.55
2022-08-12T01:16:55.690Z,3.22
2022-08-12T01:17:59.876Z,2.60
2022-08-12T01:19:04.264Z,2.28
2022-08-12T01:20:09.479Z,2.30
2022-08-12T01:21:17.579Z,2.40
2022-08-12T01:22:28.260Z,2.85
2022-08-12T01:24:30.442Z,2.75
2022-08-12T01:25:41.553Z,3.30
2022-08-12T01:27:00.497Z,3.25
2022-08-12T01:28:06.544Z,3.50
2022-08-12T01:29:11.538Z,2.80
2022-08-12T01:30:16.819Z,2.60
2022-08-12T01:31:21.081Z,3.10
2022-08-12T01:32:28.609Z,3.30
2022-08-12T01:33:35.749Z,3.30
2022-08-12T01:34:41.592Z,3.05
2022-08-12T01:35:58.017Z,3.35
2022-08-12T01:37:12.987Z,3.35
2022-08-12T01:38:21.077Z,3.13
2022-08-12T01:39:35.533Z,3.00
2022-08-12T01:40:45.043Z,4.10
2022-08-12T01:41:54.901Z,3.58
2022-08-12T01:42:59.381Z,3.47
2022-08-12T01:44:04.175Z,3.70
2022-08-12T01:45:08.276Z,3.38
2022-08-12T01:46:18.281Z,3.22
2022-08-12T01:47:31.274Z,4.18
2022-08-12T01:48:51.758Z,3.67
2022-08-12T01:50:09.638Z,2.78
2022-08-12T01:52:21.352Z,3.10
2022-08-12T01:52:58.102Z,2.50
2022-08-12T01:54:06.136Z,3.53
2022-08-12T01:55:11.020Z,2.70
2022-08-12T01:56:17.387Z,3.15
2022-08-12T01:57:58.986Z,2.83
2022-08-12T01:59:07.389Z,2.13
2022-08-12T02:00:19.312Z,3.15
2022-08-12T02:01:25.713Z,3.03
2022-08-12T02:02:35.232Z,4.32
2022-08-12T02:04:21.579Z,3.05
2022-08-12T02:05:49.877Z,3.47
2022-08-12T02:07:16.009Z,3.38
2022-08-12T02:08:46.527Z,3.05
2022-08-12T02:10:49.028Z,3.20
2022-08-12T02:11:47.997Z,3.00
2022-08-12T02:12:57.643Z,2.50
2022-08-12T02:14:33.463Z,2.17
2022-08-12T02:15:44.833Z,2.30
2022-08-12T02:17:13.882Z,2.47
2022-08-12T02:18:26.703Z,3.22
2022-08-12T02:19:42.078Z,3.03
2022-08-12T02:20:52.910Z,3.67
2022-08-12T02:22:15.012Z,2.65
2022-08-12T02:23:20.715Z,2.53
2022-08-12T02:24:24.785Z,3.15
2022-08-12T02:25:35.515Z,3.42
2022-08-12T02:26:41.911Z,3.10
2022-08-12T02:27:48.641Z,3.00
2022-08-12T02:28:52.549Z,2.90
2022-08-12T02:29:56.770Z,3.00
2022-08-12T02:31:04.998Z,3.00
2022-08-12T02:32:10.509Z,3.08
2022-08-12T02:33:13.822Z,3.00
2022-08-12T02:34:18.659Z,2.90
2022-08-12T02:35:23.521Z,3.08
2022-08-12T02:36:28.082Z,3.17
2022-08-12T02:37:36.141Z,3.05
2022-08-12T02:38:44.051Z,2.90
2022-08-12T02:39:50.019Z,2.75
2022-08-12T02:40:56.123Z,2.83
2022-08-12T02:42:04.062Z,2.97
2022-08-12T02:43:16.841Z,2.38
2022-08-12T02:44:20.680Z,3.33
2022-08-12T02:45:39.743Z,3.38
2022-08-12T02:46:50.475Z,3.33
2022-08-12T02:48:00.543Z,3.38
2022-08-12T02:49:06.655Z,3.90
2022-08-12T02:50:12.579Z,3.55
2022-08-12T02:51:24.632Z,2.65
2022-08-12T02:52:28.205Z,2.60
2022-08-12T02:53:34.511Z,3.08
2022-08-12T02:54:38.181Z,3.20
2022-08-12T02:55:42.993Z,3.42
2022-08-12T02:56:50.837Z,3.80
2022-08-12T02:57:56.117Z,2.63
2022-08-12T02:59:00.585Z,3.03
2022-08-12T03:00:06.443Z,3.58
2022-08-12T03:01:11.107Z,3.70
2022-08-12T03:02:15.011Z,2.55
2022-08-12T03:03:21.137Z,4.18
2022-08-12T03:04:27.039Z,3.60
2022-08-12T03:05:32.164Z,3.13
2022-08-12T03:06:46.995Z,3.00
2022-08-12T03:07:56.114Z,3.40
2022-08-12T03:09:04.021Z,3.30
2022-08-12T03:10:17.589Z,3.55
2022-08-12T03:11:26.229Z,3.53
2022-08-12T03:12:34.216Z,3.67
2022-08-12T03:13:42.093Z,3.42
2022-08-12T03:14:46.554Z,3.72
2022-08-12T03:15:50.076Z,3.40
2022-08-12T03:17:01.374Z,3.20
2022-08-12T03:18:25.613Z,3.00
2022-08-12T03:19:32.786Z,3.30
2022-08-12T03:20:38.284Z,3.50
2022-08-12T03:21:52.843Z,3.08
2022-08-12T03:23:09.939Z,2.78
2022-08-12T03:24:26.194Z,3.30
2022-08-12T03:25:34.778Z,2.95
2022-08-12T03:26:39.075Z,3.47
2022-08-12T03:27:49.905Z,3.05
2022-08-12T03:28:58.285Z,3.20
2022-08-12T03:30:01.461Z,3.58
2022-08-12T03:31:07.747Z,3.20
2022-08-12T03:32:35.629Z,3.70
2022-08-12T03:33:37.491Z,3.00
2022-08-12T03:34:41.824Z,2.80
2022-08-12T03:35:46.544Z,3.15
2022-08-12T03:36:49.731Z,3.17
2022-08-12T03:38:01.014Z,2.88
2022-08-12T03:39:36.493Z,3.40
2022-08-12T03:41:08.866Z,3.05
2022-08-12T03:42:28.826Z,3.20
2022-08-12T03:43:52.966Z,3.13
2022-08-12T03:45:30.163Z,2.88
2022-08-12T03:46:52.959Z,2.22
2022-08-12T03:48:18.804Z,2.58
2022-08-12T03:49:40.840Z,2.20
2022-08-12T03:51:02.482Z,2.70
2022-08-12T03:52:24.590Z,2.70
2022-08-12T03:53:49.074Z,2.50
2022-08-12T03:55:10.371Z,2.50
2022-08-12T03:56:32.125Z,3.20
2022-08-12T03:57:53.573Z,3.70
2022-08-12T03:59:16.345Z,2.40
2022-08-12T04:00:24.445Z,2.78
2022-08-12T04:01:27.989Z,2.65
2022-08-12T04:02:34.819Z,2.53
2022-08-12T04:03:53.564Z,2.85
2022-08-12T04:04:58.317Z,2.72
2022-08-12T04:06:01.364Z,2.65
2022-08-12T04:07:08.074Z,2.83
2022-08-12T04:08:11.847Z,3.05
2022-08-12T04:09:16.973Z,2.85
2022-08-12T04:10:20.375Z,3.00
2022-08-12T04:11:47.156Z,3.30
2022-08-12T04:13:15.261Z,2.97
2022-08-12T04:14:20.920Z,3.10
2022-08-12T04:15:29.137Z,2.80
2022-08-12T04:16:33.423Z,3.20
2022-08-12T04:18:06.446Z,3.30
2022-08-12T04:19:04.715Z,3.17
2022-08-12T04:20:10.107Z,2.90
2022-08-12T04:21:14.234Z,2.90
2022-08-12T04:22:17.491Z,3.03
2022-08-12T04:23:26.035Z,3.13
2022-08-12T04:24:30.400Z,2.85
2022-08-12T04:25:34.210Z,2.97
2022-08-12T04:26:39.703Z,2.83
2022-08-12T04:27:45.168Z,3.20
2022-08-12T04:28:49.289Z,3.08
2022-08-12T04:30:31.074Z,2.50
2022-08-12T04:31:18.544Z,2.53
2022-08-12T04:32:21.690Z,2.50
2022-08-12T04:33:27.162Z,2.75
2022-08-12T04:34:30.221Z,2.80
2022-08-12T04:35:34.400Z,2.63
2022-08-12T04:36:39.210Z,3.30
2022-08-12T04:37:59.364Z,2.80
2022-08-12T04:39:05.580Z,2.80
2022-08-12T04:40:14.521Z,2.60
2022-08-12T04:41:19.351Z,2.85
2022-08-12T04:42:26.421Z,2.95
2022-08-12T04:44:01.070Z,2.92
2022-08-12T04:44:54.153Z,2.85
2022-08-12T04:45:57.272Z,2.72
2022-08-12T04:47:03.028Z,3.42
2022-08-12T04:48:06.664Z,3.17
2022-08-12T04:49:10.831Z,3.00
2022-08-12T04:50:33.786Z,3.28
2022-08-12T04:51:40.653Z,3.13
2022-08-12T04:52:44.370Z,3.72
2022-08-12T04:53:49.688Z,3.40
2022-08-12T04:54:53.101Z,3.40
2022-08-12T04:55:57.367Z,3.38
2022-08-12T04:57:03.656Z,3.40
2022-08-12T04:58:10.185Z,3.20
2022-08-12T04:59:15.986Z,3.42
2022-08-12T05:00:20.310Z,3.45
2022-08-12T05:01:28.098Z,3.85
2022-08-12T05:02:33.731Z,4.10
2022-08-12T05:03:46.333Z,4.40
2022-08-12T05:04:52.994Z,5.28
2022-08-12T05:05:56.959Z,5.00
2022-08-12T05:07:01.118Z,4.03
2022-08-12T05:08:08.056Z,4.30
2022-08-12T05:09:13.365Z,4.60
2022-08-12T05:10:17.571Z,4.70
2022-08-12T05:11:24.294Z,4.40
2022-08-12T05:12:31.069Z,4.65
2022-08-12T05:13:37.811Z,4.72
2022-08-12T05:14:41.953Z,4.80
2022-08-12T05:15:53.086Z,4.93
2022-08-12T05:17:09.710Z,5.05
2022-08-12T05:18:14.609Z,5.00
2022-08-12T05:19:23.983Z,5.68
2022-08-12T05:20:27.222Z,5.95
2022-08-12T05:21:33.560Z,5.68
2022-08-12T05:22:37.338Z,5.78
2022-08-12T05:23:43.113Z,6.05
2022-08-12T05:24:47.909Z,6.10
2022-08-12T05:25:56.604Z,6.15
2022-08-12T05:27:00.595Z,6.78
2022-08-12T05:28:06.142Z,6.78
2022-08-12T05:30:07.677Z,6.03
2022-08-12T05:30:37.358Z,6.68
2022-08-12T05:31:47.797Z,5.88
2022-08-12T05:32:53.765Z,5.80
2022-08-12T05:33:59.462Z,5.85
2022-08-12T05:35:06.748Z,5.25
2022-08-12T05:36:14.135Z,4.57
2022-08-12T05:37:17.289Z,4.70
2022-08-12T05:38:39.221Z,3.97
2022-08-12T05:39:43.776Z,3.80
2022-08-12T05:40:46.812Z,4.47
2022-08-12T05:41:51.036Z,3.47
2022-08-12T05:42:54.215Z,3.63
2022-08-12T05:44:00.322Z,3.80
2022-08-12T05:45:03.369Z,4.20
2022-08-12T05:46:07.821Z,4.03
2022-08-12T05:47:14.871Z,3.55
2022-08-12T05:48:19.971Z,3.30
2022-08-12T05:49:25.591Z,3.33
2022-08-12T05:50:28.642Z,3.58
2022-08-12T05:51:40.545Z,3.35
2022-08-12T05:52:44.331Z,3.47
2022-08-12T05:53:48.657Z,3.63
2022-08-12T05:54:57.474Z,3.10
2022-08-12T05:56:02.230Z,3.17
2022-08-12T05:57:06.860Z,3.00
2022-08-12T05:58:09.889Z,3.20
2022-08-12T05:59:14.250Z,3.17
2022-08-12T06:00:18.600Z,3.23
2022-08-12T06:02:10.004Z,2.97
2022-08-12T06:02:48.335Z,3.40
2022-08-12T06:03:52.278Z,3.73
2022-08-12T06:05:00.595Z,3.57
2022-08-12T06:06:04.803Z,3.70
2022-08-12T06:07:59.630Z,3.70
2022-08-12T06:08:35.986Z,3.47
2022-08-12T06:09:40.143Z,3.33
2022-08-12T06:10:43.290Z,3.33
2022-08-12T06:12:04.279Z,3.67
2022-08-12T06:13:09.525Z,3.30
2022-08-12T06:14:13.632Z,3.40
2022-08-12T06:15:21.189Z,3.50
2022-08-12T06:16:25.694Z,3.50
2022-08-12T06:17:31.358Z,3.17
2022-08-12T06:18:35.831Z,3.20
2022-08-12T06:20:27.279Z,3.13
2022-08-12T06:21:04.942Z,2.93
2022-08-12T06:22:08.062Z,3.40
2022-08-12T06:23:12.363Z,3.20
2022-08-12T06:24:16.034Z,3.23
2022-08-12T06:25:27.110Z,3.23
2022-08-12T06:26:30.411Z,2.87
2022-08-12T06:27:34.972Z,3.00
2022-08-12T06:28:44.821Z,2.83
2022-08-12T06:30:07.958Z,3.17
2022-08-12T06:31:32.118Z,3.20
2022-08-12T06:32:35.509Z,2.83
2022-08-12T06:33:55.521Z,2.80
2022-08-12T06:35:26.534Z,2.93
2022-08-12T06:36:30.116Z,3.60
2022-08-12T06:37:40.383Z,2.90
2022-08-12T06:38:49.896Z,3.13
2022-08-12T06:39:53.231Z,2.90
2022-08-12T06:41:16.243Z,3.20
2022-08-12T06:42:38.790Z,3.20
2022-08-12T06:44:04.781Z,3.20
2022-08-12T06:45:12.198Z,3.30
2022-08-12T06:46:15.692Z,3.47
2022-08-12T06:47:22.396Z,3.97
2022-08-12T06:48:26.792Z,3.20
2022-08-12T06:49:35.014Z,2.93
2022-08-12T06:50:40.184Z,3.27
2022-08-12T06:51:56.146Z,2.90
2022-08-12T06:53:00.899Z,2.90
2022-08-12T06:54:12.279Z,2.73
2022-08-12T06:55:30.463Z,3.40
2022-08-12T06:57:02.610Z,3.20
2022-08-12T06:58:07.775Z,2.93
2022-08-12T06:59:14.439Z,2.77
2022-08-12T07:00:31.238Z,2.73
2022-08-12T07:01:39.914Z,3.10
2022-08-12T07:02:46.979Z,3.43
2022-08-12T07:03:51.519Z,3.00
2022-08-12T07:04:54.792Z,3.17
2022-08-12T07:06:00.373Z,3.60
2022-08-12T07:07:05.853Z,3.03
2022-08-12T07:08:11.269Z,2.93
2022-08-12T07:09:16.407Z,3.57
2022-08-12T07:10:44.731Z,2.70
2022-08-12T07:11:50.968Z,2.80
2022-08-12T07:12:58.346Z,2.97
2022-08-12T07:14:13.256Z,3.07
2022-08-12T07:15:18.793Z,2.80
2022-08-12T07:16:23.135Z,3.20
2022-08-12T07:17:26.481Z,3.17
2022-08-12T07:18:33.122Z,3.17
2022-08-12T07:19:40.674Z,3.23
2022-08-12T07:20:52.786Z,3.10
2022-08-12T07:22:02.550Z,3.10
2022-08-12T07:23:11.879Z,3.10
2022-08-12T07:24:16.816Z,3.07
2022-08-12T07:25:37.504Z,2.70
2022-08-12T07:26:45.842Z,2.77
2022-08-12T07:27:53.981Z,3.10
2022-08-12T07:28:58.034Z,3.50
2022-08-12T07:30:04.668Z,2.80
2022-08-12T07:31:11.790Z,3.03
2022-08-12T07:32:29.810Z,3.20
2022-08-12T07:33:33.910Z,3.47
2022-08-12T07:34:37.643Z,3.43
2022-08-12T07:35:45.620Z,3.10
2022-08-12T07:36:49.261Z,3.00
2022-08-12T07:37:53.641Z,3.07
2022-08-12T07:38:59.248Z,2.77
2022-08-12T07:40:02.298Z,3.03
2022-08-12T07:41:15.438Z,3.13
2022-08-12T07:42:19.112Z,2.90
2022-08-12T07:43:23.490Z,2.60
2022-08-12T07:44:27.603Z,2.50
2022-08-12T07:45:34.502Z,3.10
2022-08-12T07:46:41.174Z,2.83
2022-08-12T07:47:44.301Z,2.77
2022-08-12T07:48:50.963Z,2.60
2022-08-12T07:50:03.265Z,2.57
2022-08-12T07:51:10.430Z,2.50
2022-08-12T07:52:14.633Z,2.80
2022-08-12T07:53:19.083Z,2.40
2022-08-12T07:54:25.457Z,2.37
2022-08-12T07:55:28.763Z,2.93
2022-08-12T07:56:33.195Z,2.87
2022-08-12T07:57:42.326Z,2.60
2022-08-12T07:58:47.287Z,2.53
2022-08-12T07:59:50.751Z,3.00
2022-08-12T08:01:00.779Z,2.20
2022-08-12T08:02:04.121Z,3.40
2022-08-12T08:03:10.119Z,2.90
2022-08-12T08:04:31.778Z,2.37
2022-08-12T08:05:39.272Z,2.30
2022-08-12T08:06:45.119Z,2.37
2022-08-12T08:07:53.569Z,3.07
2022-08-12T08:08:57.809Z,2.70
2022-08-12T08:10:04.215Z,2.33
2022-08-12T08:11:22.190Z,2.20
2022-08-12T08:12:43.821Z,2.37
2022-08-12T08:13:49.552Z,2.43
2022-08-12T08:14:56.210Z,2.17
2022-08-12T08:16:03.734Z,2.50
2022-08-12T08:17:08.001Z,2.57
2022-08-12T08:18:26.707Z,2.37
2022-08-12T08:19:31.360Z,2.10
2022-08-12T08:20:38.268Z,2.30
2022-08-12T08:21:41.244Z,2.40
2022-08-12T08:22:45.446Z,2.23
2022-08-12T08:24:06.925Z,2.13
2022-08-12T08:25:34.569Z,2.60
2022-08-12T08:26:42.002Z,2.37
2022-08-12T08:27:46.050Z,2.33
2022-08-12T08:28:50.915Z,2.47
2022-08-12T08:29:58.101Z,2.23
2022-08-12T08:31:02.562Z,2.60
2022-08-12T08:32:06.469Z,2.53
2022-08-12T08:33:24.352Z,2.50
2022-08-12T08:34:53.077Z,2.30
2022-08-12T08:35:58.821Z,2.20
2022-08-12T08:37:07.692Z,2.37
2022-08-12T08:38:32.475Z,2.00
2022-08-12T08:39:39.440Z,2.23
2022-08-12T08:41:04.174Z,2.17
2022-08-12T08:42:26.621Z,2.30
2022-08-12T08:43:43.199Z,2.00
2022-08-12T08:44:54.039Z,2.23
2022-08-12T08:46:05.883Z,2.30
2022-08-12T08:47:10.958Z,2.50
2022-08-12T08:48:15.353Z,2.20
2022-08-12T08:49:18.793Z,2.30
2022-08-12T08:50:23.043Z,2.20
2022-08-12T08:51:26.192Z,2.40
2022-08-12T08:52:40.538Z,2.40
2022-08-12T08:53:51.865Z,2.43
2022-08-12T08:54:57.354Z,2.30
2022-08-12T08:56:05.041Z,2.30
2022-08-12T08:57:10.050Z,2.40
2022-08-12T08:58:13.295Z,2.00
2022-08-12T08:59:19.509Z,2.40
2022-08-12T09:00:22.919Z,2.27
2022-08-12T09:01:36.518Z,2.40
2022-08-12T09:02:41.825Z,2.57
2022-08-12T09:05:09.953Z,2.50
2022-08-12T09:05:25.863Z,2.30
2022-08-12T09:06:36.930Z,1.90
2022-08-12T09:09:14.675Z,2.30
2022-08-12T09:12:11.095Z,2.50
2022-08-12T09:14:10.603Z,2.20
2022-08-12T09:14:56.920Z,2.30
2022-08-12T09:16:00.901Z,2.20
2022-08-12T09:17:05.620Z,2.17
2022-08-12T09:18:11.422Z,2.27
2022-08-12T09:19:27.248Z,2.50
2022-08-12T09:20:34.131Z,2.40
2022-08-12T09:23:08.078Z,2.30
2022-08-12T09:24:27.847Z,2.37
2022-08-12T09:25:34.193Z,2.20
2022-08-12T09:26:46.632Z,2.40
2022-08-12T09:28:04.489Z,2.43
2022-08-12T09:29:12.160Z,2.10
2022-08-12T09:30:16.927Z,2.30
2022-08-12T09:32:07.128Z,2.50
2022-08-12T09:33:04.906Z,2.30
2022-08-12T09:34:25.500Z,2.40
2022-08-12T09:35:43.199Z,2.70
2022-08-12T09:36:57.640Z,2.30
2022-08-12T09:38:06.022Z,2.67
2022-08-12T09:40:05.758Z,2.20
2022-08-12T09:40:57.103Z,2.43
2022-08-12T09:42:41.027Z,2.37
2022-08-12T09:44:37.806Z,2.90
2022-08-12T09:46:19.616Z,2.40
2022-08-12T09:46:59.065Z,2.30
2022-08-12T09:48:06.856Z,2.27
2022-08-12T09:49:16.725Z,2.50
2022-08-12T09:50:26.982Z,2.33
2022-08-12T09:51:37.792Z,2.47
2022-08-12T09:52:54.342Z,2.10
2022-08-12T09:54:09.114Z,2.53
2022-08-12T09:56:06.219Z,2.43
2022-08-12T09:57:00.467Z,2.17
2022-08-12T09:58:45.371Z,2.43
2022-08-12T10:00:17.552Z,2.10
2022-08-12T10:01:14.990Z,2.50
2022-08-12T10:02:52.499Z,2.37
2022-08-12T10:04:03.482Z,2.20
2022-08-12T10:05:13.910Z,2.73
2022-08-12T10:06:31.426Z,2.40
2022-08-12T10:07:40.460Z,2.40
2022-08-12T10:08:45.150Z,2.67
2022-08-12T10:09:58.286Z,2.43
2022-08-12T10:11:22.236Z,2.43
2022-08-12T10:12:43.941Z,2.53
2022-08-12T10:14:08.052Z,3.70
2022-08-12T10:16:01.581Z,2.50
2022-08-12T10:16:45.663Z,2.37
2022-08-12T10:18:06.305Z,2.30
2022-08-12T10:19:17.761Z,2.60
2022-08-12T10:20:21.074Z,2.40
2022-08-12T10:21:36.241Z,2.33
2022-08-12T10:22:41.744Z,2.70
2022-08-12T10:23:48.342Z,2.30
2022-08-12T10:25:17.221Z,2.30
2022-08-12T10:26:40.292Z,2.50
2022-08-12T10:28:04.678Z,2.20
2022-08-12T10:30:02.859Z,2.50
2022-08-12T10:30:59.097Z,2.80
2022-08-12T10:32:20.551Z,2.60
2022-08-12T10:33:30.955Z,2.50
2022-08-12T10:34:39.976Z,2.10
2022-08-12T10:35:58.581Z,3.03
2022-08-12T10:37:15.594Z,2.40
2022-08-12T10:38:38.104Z,2.70
2022-08-12T10:40:07.052Z,2.70
2022-08-12T10:41:56.760Z,2.23
2022-08-12T10:43:09.067Z,2.90
2022-08-12T10:44:17.223Z,2.50
2022-08-12T10:45:20.757Z,2.60
2022-08-12T10:46:31.049Z,2.50
2022-08-12T10:48:07.359Z,2.00
2022-08-12T10:49:06.603Z,2.20
2022-08-12T10:50:58.318Z,2.50
2022-08-12T10:52:33.189Z,2.17
2022-08-12T10:53:44.364Z,2.40
2022-08-12T10:54:51.149Z,2.60
2022-08-12T10:55:56.385Z,3.17
2022-08-12T10:57:01.981Z,3.00
2022-08-12T10:58:15.324Z,3.10
2022-08-12T11:00:31.587Z,2.63
2022-08-12T11:01:48.889Z,2.60
2022-08-12T11:04:22.957Z,2.50
2022-08-12T11:04:35.539Z,2.57
2022-08-12T11:07:02.589Z,2.40
2022-08-12T11:07:03.334Z,2.40
2022-08-12T11:08:34.549Z,2.50
2022-08-12T11:09:41.545Z,2.63
2022-08-12T11:10:54.679Z,2.73
2022-08-12T11:12:35.566Z,2.47
2022-08-12T11:13:46.181Z,2.93
2022-08-12T11:14:52.362Z,2.70
2022-08-12T11:16:04.117Z,2.57
2022-08-12T11:17:42.900Z,2.47
2022-08-12T11:18:45.924Z,3.00
2022-08-12T11:19:50.560Z,2.70
2022-08-12T11:20:57.843Z,3.00
2022-08-12T11:22:03.415Z,2.90
2022-08-12T11:23:36.211Z,3.10
2022-08-12T11:24:35.932Z,2.67
2022-08-12T11:25:57.883Z,2.80
2022-08-12T11:27:07.607Z,2.70
2022-08-12T11:28:20.595Z,2.57
2022-08-12T11:30:05.685Z,2.77
2022-08-12T11:31:02.429Z,2.53
2022-08-12T11:32:07.532Z,2.90
2022-08-12T11:33:24.034Z,2.67
2022-08-12T11:34:53.224Z,2.63
2022-08-12T11:35:56.262Z,2.37
2022-08-12T11:37:05.173Z,2.80
2022-08-12T11:38:28.242Z,2.57
2022-08-12T11:40:03.508Z,2.27
2022-08-12T11:40:56.471Z,2.30
2022-08-12T11:42:02.362Z,2.40
2022-08-12T11:43:19.289Z,1.93
2022-08-12T11:44:36.665Z,2.37
2022-08-12T11:45:47.105Z,2.20
2022-08-12T11:46:53.245Z,2.53
2022-08-12T11:47:56.620Z,2.28
2022-08-12T11:49:02.117Z,2.30
2022-08-12T11:50:05.984Z,2.00
2022-08-12T11:51:10.866Z,2.20
2022-08-12T11:52:17.319Z,2.42
2022-08-12T11:53:57.842Z,2.30
2022-08-12T11:55:02.828Z,2.40
2022-08-12T11:56:08.408Z,2.30
2022-08-12T11:58:07.094Z,2.30
2022-08-12T12:02:03.034Z,2.47
2022-08-12T12:02:58.484Z,2.50
2022-08-12T12:04:04.651Z,2.50
2022-08-12T12:05:08.915Z,2.42
2022-08-12T12:06:17.121Z,2.40
2022-08-12T12:08:36.293Z,2.58
2022-08-12T12:08:51.628Z,2.30
2022-08-12T12:09:56.636Z,2.28
2022-08-12T12:11:01.019Z,2.33
2022-08-12T12:12:05.085Z,2.47
2022-08-12T12:13:23.334Z,2.30
2022-08-12T12:14:39.367Z,2.20
2022-08-12T12:15:44.057Z,2.10
2022-08-12T12:16:50.866Z,2.20
2022-08-12T12:17:55.729Z,2.28
2022-08-12T12:18:59.101Z,2.33
2022-08-12T12:20:09.189Z,1.90
2022-08-12T12:21:12.990Z,2.40
2022-08-12T12:22:23.178Z,2.20
2022-08-12T12:23:36.189Z,1.90
2022-08-12T12:24:43.509Z,2.47
2022-08-12T12:26:06.723Z,2.53
2022-08-12T12:27:10.968Z,2.95
2022-08-12T12:28:37.439Z,2.33
2022-08-12T12:30:19.273Z,2.20
2022-08-12T12:31:04.440Z,2.47
2022-08-12T12:32:11.662Z,2.70
2022-08-12T12:33:17.715Z,2.22
2022-08-12T12:34:30.231Z,2.20
2022-08-12T12:36:19.968Z,2.40
2022-08-12T12:37:00.776Z,2.30
2022-08-12T12:38:12.364Z,2.47
2022-08-12T12:39:17.634Z,2.42
2022-08-12T12:40:21.423Z,2.40
2022-08-12T12:42:47.572Z,2.30
2022-08-12T12:43:00.450Z,2.40
2022-08-12T12:44:07.275Z,2.10
2022-08-12T12:45:19.044Z,2.30
2022-08-12T12:46:28.077Z,2.55
2022-08-12T12:47:32.630Z,2.15
2022-08-12T12:48:44.527Z,2.50
2022-08-12T12:49:48.068Z,2.35
2022-08-12T12:51:49.158Z,2.35
2022-08-12T12:52:41.557Z,2.10
2022-08-12T12:54:07.560Z,2.17
2022-08-12T12:55:11.425Z,2.47
2022-08-12T12:56:34.210Z,2.22
2022-08-12T12:58:00.276Z,2.40
2022-08-12T12:59:06.285Z,2.60
2022-08-12T13:00:16.161Z,2.35
2022-08-12T13:01:27.972Z,2.75
2022-08-12T13:02:40.460Z,2.30
2022-08-12T13:03:49.066Z,2.20
2022-08-12T13:04:53.909Z,2.13
2022-08-12T13:06:00.821Z,2.20
2022-08-12T13:07:05.809Z,2.15
2022-08-12T13:08:28.473Z,2.05
2022-08-12T13:09:40.116Z,2.40
2022-08-12T13:10:51.043Z,2.38
2022-08-12T13:11:55.497Z,2.05
2022-08-12T13:14:08.045Z,2.10
2022-08-12T13:14:29.531Z,2.25
2022-08-12T13:15:45.461Z,2.28
2022-08-12T13:16:52.679Z,2.17
2022-08-12T13:18:04.867Z,2.10
2022-08-12T13:19:12.457Z,2.20
2022-08-12T13:20:38.075Z,2.53
2022-08-12T13:21:59.023Z,3.25
2022-08-12T13:23:03.063Z,2.22
2022-08-12T13:24:26.296Z,1.95
2022-08-12T13:25:37.419Z,2.90
2022-08-12T13:26:42.711Z,2.22
2022-08-12T13:27:49.375Z,2.28
2022-08-12T13:28:56.082Z,2.20
2022-08-12T13:30:06.976Z,2.15
2022-08-12T13:31:16.923Z,2.22
2022-08-12T13:32:30.881Z,2.50
2022-08-12T13:34:29.507Z,2.22
2022-08-12T13:35:04.674Z,2.35
2022-08-12T13:36:23.766Z,2.22
2022-08-12T13:37:28.265Z,2.40
2022-08-12T13:38:52.174Z,2.30
2022-08-12T13:39:57.479Z,2.33
2022-08-12T13:41:01.697Z,2.33
2022-08-12T13:42:14.586Z,2.20
2022-08-12T13:43:40.890Z,2.83
2022-08-12T13:44:43.470Z,2.30
2022-08-12T13:45:48.959Z,2.53
2022-08-12T13:46:58.959Z,2.25
2022-08-12T13:48:06.312Z,2.38
2022-08-12T13:49:20.443Z,2.35
2022-08-12T13:50:41.067Z,2.40
2022-08-12T13:51:51.393Z,2.20
2022-08-12T13:52:56.531Z,2.20
2022-08-12T13:54:05.101Z,2.30
2022-08-12T13:55:13.676Z,2.35
2022-08-12T13:56:18.020Z,2.28
2022-08-12T13:57:25.746Z,2.00
2022-08-12T13:58:30.558Z,2.35
2022-08-12T13:59:48.157Z,2.70
2022-08-12T14:00:58.859Z,2.35
2022-08-12T14:02:02.415Z,2.50
2022-08-12T14:03:07.147Z,2.17
2022-08-12T14:04:14.389Z,2.85
2022-08-12T14:05:30.089Z,2.70
2022-08-12T14:06:44.948Z,3.15
2022-08-12T14:08:04.641Z,2.90
2022-08-12T14:09:15.666Z,2.50
2022-08-12T14:10:37.964Z,2.42
2022-08-12T14:11:51.213Z,2.70
2022-08-12T14:13:02.316Z,2.67
2022-08-12T14:14:12.609Z,2.80
2022-08-12T14:15:16.627Z,2.40
2022-08-12T14:16:37.597Z,2.30
2022-08-12T14:17:47.698Z,2.30
2022-08-12T14:18:56.448Z,2.33
2022-08-12T14:20:15.376Z,2.40
2022-08-12T14:21:22.454Z,2.28
2022-08-12T14:22:27.254Z,2.28
2022-08-12T14:24:04.948Z,2.33
2022-08-12T14:25:00.574Z,2.88
2022-08-12T14:26:11.763Z,2.75
2022-08-12T14:27:38.143Z,2.65
2022-08-12T14:28:45.232Z,2.67
2022-08-12T14:30:06.222Z,2.33
2022-08-12T14:31:21.886Z,2.20
2022-08-12T14:32:25.564Z,2.50
2022-08-12T14:33:43.915Z,2.50
2022-08-12T14:34:49.328Z,2.67
2022-08-12T14:35:54.889Z,2.50
2022-08-12T14:36:58.235Z,2.20
2022-08-12T14:38:14.258Z,2.00
2022-08-12T14:39:19.847Z,2.20
2022-08-12T14:40:27.391Z,2.10
2022-08-12T14:41:37.294Z,2.57
2022-08-12T14:42:58.627Z,2.97
2022-08-12T14:44:58.039Z,2.50
2022-08-12T14:45:44.947Z,2.30
2022-08-12T14:46:55.970Z,2.90
2022-08-12T14:47:59.170Z,2.63
2022-08-12T14:49:27.572Z,2.15
2022-08-12T14:50:58.723Z,2.50
2022-08-12T14:52:44.083Z,2.40
2022-08-12T14:57:57.025Z,3.00
2022-08-12T14:59:20.591Z,2.87
2022-08-12T15:00:52.196Z,2.33
2022-08-12T15:01:57.066Z,2.63
2022-08-12T15:03:04.857Z,2.70
2022-08-12T15:04:13.607Z,2.60
2022-08-12T15:06:05.580Z,2.60
2022-08-12T15:06:52.568Z,2.90
2022-08-12T15:08:04.814Z,2.70
2022-08-12T15:09:12.195Z,3.00
2022-08-12T15:10:31.601Z,3.00
2022-08-12T15:11:55.112Z,2.87
2022-08-12T15:12:59.289Z,2.97
2022-08-12T15:14:06.010Z,2.90
2022-08-12T15:15:10.539Z,3.27
2022-08-12T15:16:18.862Z,3.07
2022-08-12T15:17:38.005Z,2.60
2022-08-12T15:18:55.150Z,2.87
2022-08-12T15:20:32.086Z,2.70
2022-08-12T15:21:24.419Z,3.13
2022-08-12T15:22:37.872Z,2.70
2022-08-12T15:23:45.648Z,2.70
2022-08-12T15:24:59.000Z,2.57
2022-08-12T15:26:06.267Z,2.97
2022-08-12T15:27:09.630Z,2.70
2022-08-12T15:28:21.430Z,2.80
2022-08-12T15:29:28.748Z,2.60
2022-08-12T15:30:33.789Z,2.30
2022-08-12T15:32:00.003Z,2.73
2022-08-12T15:33:12.970Z,2.77
2022-08-12T15:34:19.543Z,2.90
2022-08-12T15:35:23.310Z,2.50
2022-08-12T15:36:54.951Z,3.00
2022-08-12T15:38:10.087Z,2.50
2022-08-12T15:39:17.560Z,2.77
2022-08-12T15:40:30.390Z,2.57
2022-08-12T15:41:49.252Z,2.50
2022-08-12T15:42:54.557Z,2.70
2022-08-12T15:44:36.807Z,2.87
2022-08-12T15:45:27.064Z,3.20
2022-08-12T15:46:37.169Z,2.70
2022-08-12T15:47:48.311Z,3.10
2022-08-12T15:48:57.535Z,2.70
2022-08-12T15:50:01.314Z,2.80
2022-08-12T15:51:06.038Z,2.87
2022-08-12T15:52:10.188Z,2.90
2022-08-12T15:53:53.057Z,2.93
2022-08-12T15:55:05.166Z,3.10
2022-08-12T15:56:16.857Z,2.90
2022-08-12T15:57:24.592Z,2.43
2022-08-12T15:58:27.635Z,2.80
2022-08-12T16:00:04.075Z,2.73
2022-08-12T16:01:02.728Z,2.90
2022-08-12T16:02:09.906Z,2.73
2022-08-12T16:03:19.242Z,2.60
2022-08-12T16:04:29.499Z,2.60
2022-08-12T16:06:13.106Z,2.60
2022-08-12T16:07:05.896Z,2.40
2022-08-12T16:08:21.159Z,2.77
2022-08-12T16:09:55.778Z,2.40
2022-08-12T16:10:53.304Z,2.80
2022-08-12T16:12:03.476Z,2.40